Terminal Aerodrome Forecast
Issued by NWS Topeka, KS

Home | Current Version | Previous Version | Graphics & Text | Print | Product List | Glossary On
Versions: 1 2 3 4 5 6 7 8 9 10 11 12 13 14 15 16 17 18 19 20 21 22 23 24 25 26 27
689
FTUS43 KTOP 270322 AAB
TAFTOP
TAF AMD
KTOP 270322Z 2703/2724 09010KT P6SM -SHRA VCTS BKN090CB
      TEMPO 2703/2707 4SM TSRA BR BKN045CB
     FM271100 16011KT P6SM BKN040
     FM271400 24013KT P6SM SCT040=

USA.gov is the U.S. government's official web portal to all federal, state and local government web resources and services.